Time;durP1;ratioP1;P1;durP2;ratioP2;P2;SDS_P1;SDS_P2;PMS_P1;PMS_P2;Temp;Humidity;BMP_temperature;BMP_pressure;BME280_temperature;BME280_humidity;BME280_pressure;Samples;Min_cycle;Max_cycle;Signal;HPM_P1;HPM_P2
2021/03/04 00:02:13;;;;;;;11.55;6.10;;;;;;;12.41;41.12;97856.69;5019802;28;20558;-74
2021/03/04 00:04:39;;;;;;;9.00;5.20;;;;;;;12.34;42.00;97856.84;5002803;28;20041;-74
2021/03/04 00:07:04;;;;;;;7.88;4.57;;;;;;;12.32;41.61;97865.94;5020638;28;20373;-74
2021/03/04 00:09:29;;;;;;;10.68;5.65;;;;;;;12.26;41.72;97854.63;4985371;28;20030;-74
2021/03/04 00:11:55;;;;;;;11.15;5.03;;;;;;;12.28;41.50;97854.41;5003686;28;20128;-74
2021/03/04 00:14:20;;;;;;;10.35;5.20;;;;;;;12.28;41.51;97846.56;5004612;28;20076;-74
2021/03/04 00:16:46;;;;;;;10.48;5.00;;;;;;;12.22;41.47;97850.91;4986987;28;20017;-75
2021/03/04 00:19:11;;;;;;;9.85;5.13;;;;;;;12.17;41.55;97851.63;4987467;28;20042;-74
2021/03/04 00:21:37;;;;;;;12.57;5.80;;;;;;;12.31;41.49;97853.94;5003493;28;20048;-74
2021/03/04 00:24:04;;;;;;;8.88;5.70;;;;;;;12.25;41.50;97852.25;5005918;28;20037;-75
2021/03/04 00:26:30;;;;;;;9.75;5.70;;;;;;;12.19;41.92;97833.13;5004234;28;20458;-75
2021/03/04 00:28:56;;;;;;;9.63;5.90;;;;;;;12.11;42.50;97844.72;4989264;28;20183;-74
2021/03/04 00:31:22;;;;;;;10.90;6.13;;;;;;;12.13;42.14;97847.09;5005841;28;20029;-74
2021/03/04 00:33:48;;;;;;;9.18;5.68;;;;;;;11.94;43.32;97851.78;5020974;28;20586;-74
2021/03/04 00:36:14;;;;;;;10.80;5.20;;;;;;;11.79;43.66;97850.47;5004118;28;20037;-74
2021/03/04 00:38:40;;;;;;;8.98;5.43;;;;;;;11.76;43.69;97847.53;5021609;28;20049;-74
2021/03/04 00:41:05;;;;;;;11.10;6.03;;;;;;;11.70;44.56;97838.81;5004497;28;20071;-74
2021/03/04 00:43:34;;;;;;;8.13;5.00;;;;;;;11.63;43.91;97840.78;5005165;28;20069;-74
2021/03/04 00:45:59;;;;;;;10.55;5.50;;;;;;;11.58;44.76;97844.13;5004862;28;20076;-74
2021/03/04 00:48:25;;;;;;;8.82;5.57;;;;;;;11.58;44.12;97838.09;4986581;28;20544;-74
2021/03/04 00:50:50;;;;;;;10.18;5.72;;;;;;;11.54;43.91;97839.59;5004797;28;20575;-74
2021/03/04 00:53:16;;;;;;;11.57;5.60;;;;;;;11.51;44.04;97846.03;5021165;28;20036;-74
2021/03/04 00:55:41;;;;;;;9.95;5.18;;;;;;;11.46;44.30;97832.91;5005478;28;20030;-74
2021/03/04 00:58:06;;;;;;;11.65;5.60;;;;;;;11.45;43.64;97831.34;4988383;28;20025;-74
2021/03/04 01:00:32;;;;;;;9.82;5.78;;;;;;;11.54;43.74;97818.72;5004034;28;20033;-74
2021/03/04 01:02:58;;;;;;;9.85;5.63;;;;;;;11.50;44.29;97818.41;5020074;28;20077;-74
2021/03/04 01:05:23;;;;;;;10.93;5.32;;;;;;;11.54;43.55;97823.94;5004385;28;20041;-74
2021/03/04 01:07:49;;;;;;;12.00;6.55;;;;;;;11.51;43.87;97812.16;5019250;28;20081;-74
2021/03/04 01:10:19;;;;;;;8.52;5.53;;;;;;;11.20;44.59;97813.41;5019744;28;20041;-75
2021/03/04 01:12:44;;;;;;;12.68;5.95;;;;;;;11.37;43.86;97811.66;5004504;28;20076;-74
2021/03/04 01:15:14;;;;;;;8.95;5.43;;;;;;;11.31;43.78;97811.78;5020883;28;20033;-74
2021/03/04 01:17:40;;;;;;;10.18;5.20;;;;;;;11.43;44.00;97810.72;5006549;28;20052;-74
2021/03/04 01:20:08;;;;;;;10.30;6.13;;;;;;;11.21;43.81;97809.81;4990575;28;20483;-74
2021/03/04 01:22:33;;;;;;;12.88;6.13;;;;;;;11.36;44.78;97809.25;5008990;28;20071;-74
2021/03/04 01:24:59;;;;;;;10.38;6.18;;;;;;;11.30;44.73;97797.97;5009234;28;20464;-74
2021/03/04 01:27:24;;;;;;;11.07;5.80;;;;;;;11.25;44.57;97793.44;4992627;28;20132;-74
2021/03/04 01:29:50;;;;;;;9.55;5.93;;;;;;;11.25;44.52;97795.25;5008639;28;20037;-74
2021/03/04 01:32:15;;;;;;;12.02;6.07;;;;;;;11.22;44.14;97799.16;5023020;28;20073;-74
2021/03/04 01:34:41;;;;;;;11.10;5.47;;;;;;;11.24;44.06;97791.88;4992363;28;20065;-75
2021/03/04 01:37:06;;;;;;;11.25;6.68;;;;;;;11.23;44.18;97790.28;5005971;28;20311;-74
2021/03/04 01:39:31;;;;;;;11.15;5.63;;;;;;;11.20;44.10;97785.53;5008351;28;20120;-74
2021/03/04 01:41:57;;;;;;;12.55;6.18;;;;;;;11.16;44.26;97784.41;5009560;28;20139;-74
2021/03/04 01:44:22;;;;;;;9.98;6.10;;;;;;;11.03;44.41;97779.47;5009040;28;20044;-74
2021/03/04 01:46:48;;;;;;;13.80;6.63;;;;;;;11.00;44.98;97780.75;5009087;28;20037;-74
2021/03/04 01:49:13;;;;;;;9.90;5.80;;;;;;;11.01;44.35;97781.53;5008776;28;20140;-74
2021/03/04 01:51:39;;;;;;;11.57;5.35;;;;;;;10.99;44.94;97779.16;5008399;28;20033;-74
2021/03/04 01:54:06;;;;;;;10.27;5.75;;;;;;;10.92;44.60;97770.69;4991863;28;20171;-74
2021/03/04 01:56:31;;;;;;;10.40;6.53;;;;;;;10.85;45.11;97762.22;5025505;28;20109;-74
2021/03/04 01:58:59;;;;;;;9.48;6.22;;;;;;;10.64;45.64;97767.03;5004896;28;20553;-74
2021/03/04 02:01:24;;;;;;;8.90;6.30;;;;;;;10.80;45.55;97762.13;5021361;28;20037;-75
2021/03/04 02:03:50;;;;;;;13.93;6.53;;;;;;;10.66;45.91;97749.34;5025045;22;20027;-76
2021/03/04 02:06:16;;;;;;;10.52;6.22;;;;;;;10.69;45.89;97748.09;5024595;28;20084;-76
2021/03/04 02:08:48;;;;;;;12.73;6.35;;;;;;;10.57;45.55;97747.31;5026494;28;20076;-76
2021/03/04 02:11:25;;;;;;;11.70;6.38;;;;;;;10.48;46.28;97737.25;5027994;28;20395;-76
2021/03/04 02:14:02;;;;;;;12.80;5.85;;;;;;;10.54;45.76;97743.38;5027954;28;20048;-76
2021/03/04 02:16:29;;;;;;;11.60;6.25;;;;;;;10.93;45.60;97743.59;5025164;28;20526;-76
2021/03/04 02:19:00;;;;;;;12.77;5.70;;;;;;;10.79;45.61;97737.06;5011346;28;20069;-76
2021/03/04 02:21:47;;;;;;;10.30;6.38;;;;;;;10.72;46.00;97733.81;5011089;28;20075;-76
2021/03/04 02:24:36;;;;;;;11.38;6.57;;;;;;;10.64;45.99;97729.75;4995084;28;20044;-76
2021/03/04 02:27:07;;;;;;;13.35;7.05;;;;;;;10.81;45.73;97732.44;5011596;28;20055;-76
2021/03/04 02:29:37;;;;;;;13.63;7.00;;;;;;;10.84;45.36;97734.56;5010655;28;20028;-76
2021/03/04 02:32:04;;;;;;;11.52;6.35;;;;;;;11.00;45.47;97722.59;5016487;28;20044;-76
2021/03/04 02:34:30;;;;;;;11.60;6.65;;;;;;;11.10;45.66;97728.00;4994843;28;20770;-76
2021/03/04 02:36:56;;;;;;;12.65;6.55;;;;;;;11.07;45.58;97718.06;5004460;28;20444;-76
2021/03/04 02:39:23;;;;;;;13.32;7.28;;;;;;;11.05;45.24;97722.69;5019115;28;20072;-76
2021/03/04 02:41:51;;;;;;;11.25;6.57;;;;;;;11.04;45.04;97718.53;5027880;28;20033;-76
2021/03/04 02:44:19;;;;;;;13.40;6.50;;;;;;;10.93;45.67;97712.31;5011097;28;20036;-76
2021/03/04 02:46:44;;;;;;;10.63;6.30;;;;;;;10.91;45.57;97700.56;5027386;28;20171;-76
2021/03/04 02:49:10;;;;;;;12.40;6.85;;;;;;;10.96;45.70;97706.66;5011191;28;20108;-76
2021/03/04 02:51:36;;;;;;;12.38;7.38;;;;;;;10.95;45.59;97710.31;5011162;28;20044;-76
2021/03/04 02:54:03;;;;;;;10.70;6.57;;;;;;;11.12;45.45;97710.34;5009389;28;20560;-76
2021/03/04 02:56:29;;;;;;;11.52;6.40;;;;;;;10.92;45.77;97696.94;5008832;28;20032;-76
2021/03/04 02:58:54;;;;;;;13.55;6.88;;;;;;;11.01;45.75;97698.16;5027488;28;20116;-76
2021/03/04 03:01:21;;;;;;;15.65;7.38;;;;;;;11.15;45.21;97690.81;4995963;28;20116;-76
2021/03/04 03:03:50;;;;;;;15.88;7.22;;;;;;;11.04;45.38;97689.88;5026517;28;20047;-76
2021/03/04 03:06:21;;;;;;;11.82;6.88;;;;;;;10.86;45.31;97685.63;5005775;28;20092;-76
2021/03/04 03:08:47;;;;;;;12.57;7.38;;;;;;;11.09;45.58;97683.94;4994125;28;20032;-76
2021/03/04 03:11:15;;;;;;;9.23;6.10;;;;;;;11.00;45.49;97676.53;5010622;28;20058;-76
2021/03/04 03:13:41;;;;;;;11.98;6.53;;;;;;;11.09;45.30;97673.50;5008344;28;20439;-76
2021/03/04 03:16:06;;;;;;;10.40;6.60;;;;;;;11.22;45.17;97674.03;5010975;28;20025;-76
2021/03/04 03:18:32;;;;;;;11.88;6.70;;;;;;;11.18;45.38;97669.50;4993966;28;20592;-76
2021/03/04 03:20:57;;;;;;;12.52;6.68;;;;;;;11.20;45.25;97680.47;5043708;28;20448;-76
2021/03/04 03:23:23;;;;;;;11.45;6.65;;;;;;;11.22;45.26;97674.03;5026891;28;20035;-76
2021/03/04 03:25:48;;;;;;;10.43;6.28;;;;;;;11.22;45.62;97676.63;5026416;28;20025;-76
2021/03/04 03:28:13;;;;;;;13.98;7.32;;;;;;;11.23;45.67;97672.19;5010086;28;20071;-76
2021/03/04 03:30:39;;;;;;;10.50;6.50;;;;;;;11.16;45.35;97676.78;5023598;28;20041;-76
2021/03/04 03:33:07;;;;;;;14.23;6.55;;;;;;;11.06;45.44;97686.00;5002582;28;20121;-76
2021/03/04 03:35:33;;;;;;;12.30;6.72;;;;;;;11.17;45.45;97680.94;4989953;28;20036;-76
2021/03/04 03:38:02;;;;;;;12.50;6.75;;;;;;;10.99;45.55;97672.31;5010176;28;20032;-76
2021/03/04 03:40:28;;;;;;;12.10;6.28;;;;;;;10.93;45.74;97668.03;5026750;28;20040;-76
2021/03/04 03:42:54;;;;;;;14.60;7.15;;;;;;;10.87;45.94;97664.56;5010171;28;20028;-76
2021/03/04 03:45:24;;;;;;;12.27;7.72;;;;;;;10.78;45.74;97667.75;5009752;28;20083;-76
2021/03/04 03:47:50;;;;;;;10.15;6.55;;;;;;;10.78;46.00;97654.75;5006770;28;20112;-76
2021/03/04 03:50:16;;;;;;;16.25;6.25;;;;;;;10.79;46.05;97654.50;5010186;28;20222;-76
2021/03/04 03:52:43;;;;;;;12.13;7.18;;;;;;;10.82;46.09;97656.66;4993594;28;20024;-76
2021/03/04 03:55:10;;;;;;;13.15;7.57;;;;;;;10.85;45.77;97656.19;4986805;28;20431;-76
2021/03/04 03:57:35;;;;;;;12.15;7.00;;;;;;;10.74;46.06;97651.81;5025178;28;20086;-76
2021/03/04 04:00:04;;;;;;;12.18;6.72;;;;;;;10.53;46.01;97642.84;5006351;28;20033;-76
2021/03/04 04:02:29;;;;;;;15.00;7.75;;;;;;;10.64;46.13;97642.03;5009961;28;20037;-76
2021/03/04 04:04:55;;;;;;;15.93;7.38;;;;;;;10.76;46.04;97643.78;5001707;28;20052;-76
2021/03/04 04:07:21;;;;;;;12.43;6.78;;;;;;;10.72;46.20;97647.88;5006185;28;20033;-76
2021/03/04 04:09:46;;;;;;;13.25;6.90;;;;;;;10.78;46.18;97657.34;4993239;28;20437;-76
2021/03/04 04:12:12;;;;;;;11.43;6.82;;;;;;;10.78;46.11;97654.75;5009797;28;20559;-76
2021/03/04 04:14:39;;;;;;;13.50;6.90;;;;;;;10.60;46.25;97650.53;5025706;28;20521;-76
2021/03/04 04:17:04;;;;;;;12.07;6.60;;;;;;;10.73;46.22;97652.03;5025884;28;20043;-76
2021/03/04 04:19:30;;;;;;;10.80;6.57;;;;;;;10.67;46.30;97641.53;4993251;28;20036;-76
2021/03/04 04:21:55;;;;;;;13.85;6.78;;;;;;;10.62;46.07;97635.44;5009297;28;20029;-76
2021/03/04 04:24:21;;;;;;;15.07;7.25;;;;;;;10.70;46.61;97642.13;5009331;28;20037;-75
2021/03/04 04:26:46;;;;;;;12.65;7.40;;;;;;;10.66;46.39;97639.19;4991852;28;20397;-76
2021/03/04 04:29:11;;;;;;;11.00;6.80;;;;;;;10.70;46.61;97636.91;5026203;28;20048;-76
2021/03/04 04:31:37;;;;;;;11.55;7.47;;;;;;;10.60;46.00;97635.69;4993129;28;20065;-76
2021/03/04 04:34:03;;;;;;;13.98;6.63;;;;;;;10.63;46.15;97634.44;5009226;28;20040;-76
2021/03/04 04:36:28;;;;;;;13.27;7.18;;;;;;;10.68;46.25;97635.31;5003915;28;20475;-76
2021/03/04 04:38:53;;;;;;;13.77;6.95;;;;;;;10.59;46.48;97634.13;5009419;28;20033;-76
2021/03/04 04:41:19;;;;;;;12.15;7.00;;;;;;;10.61;46.13;97629.47;5022575;28;20034;-76
2021/03/04 04:43:44;;;;;;;13.00;7.22;;;;;;;10.59;46.31;97628.91;5008973;28;20365;-76
2021/03/04 04:46:09;;;;;;;14.40;7.07;;;;;;;10.48;46.21;97622.69;5043543;28;20037;-75
2021/03/04 04:48:35;;;;;;;11.23;6.60;;;;;;;10.45;46.62;97617.97;5008306;28;20172;-76
2021/03/04 04:51:01;;;;;;;14.57;7.95;;;;;;;10.42;46.89;97615.06;4992561;28;20045;-76
2021/03/04 04:53:26;;;;;;;13.63;7.25;;;;;;;10.37;46.94;97612.34;5046652;28;20033;-76
2021/03/04 04:55:51;;;;;;;14.88;8.60;;;;;;;10.35;47.12;97617.78;5012427;28;20029;-76
2021/03/04 04:58:17;;;;;;;12.60;7.00;;;;;;;10.39;46.99;97623.31;5012655;28;20531;-76
2021/03/04 05:00:42;;;;;;;13.88;7.47;;;;;;;10.44;46.91;97611.19;4996069;28;20036;-76
2021/03/04 05:03:07;;;;;;;12.25;6.85;;;;;;;10.49;46.53;97620.91;4990213;28;20026;-76
2021/03/04 05:05:33;;;;;;;13.93;7.22;;;;;;;10.42;46.70;97604.66;5008570;28;20391;-76
2021/03/04 05:07:58;;;;;;;15.30;8.15;;;;;;;10.39;46.73;97610.31;5029537;28;20041;-76
2021/03/04 05:10:24;;;;;;;15.30;7.28;;;;;;;10.40;47.07;97609.28;5029042;28;20448;-75
2021/03/04 05:12:49;;;;;;;12.52;7.00;;;;;;;10.28;46.87;97612.69;5028277;28;20087;-76
2021/03/04 05:15:14;;;;;;;14.82;7.72;;;;;;;10.26;47.02;97609.53;5027591;28;20036;-76
2021/03/04 05:17:40;;;;;;;12.80;7.55;;;;;;;10.11;48.16;97611.84;4996521;28;20025;-76
2021/03/04 05:20:09;;;;;;;10.63;6.95;;;;;;;9.97;47.84;97610.50;5028866;28;20032;-76
2021/03/04 05:22:35;;;;;;;13.77;8.00;;;;;;;10.09;47.75;97609.47;5029235;28;20056;-76
2021/03/04 05:25:00;;;;;;;13.88;8.23;;;;;;;9.99;48.06;97609.25;5028758;28;20483;-76
2021/03/04 05:27:27;;;;;;;13.25;7.13;;;;;;;9.93;48.15;97608.34;5013023;28;20115;-76
2021/03/04 05:29:53;;;;;;;14.00;7.38;;;;;;;10.02;47.85;97592.38;5029349;28;20473;-76
2021/03/04 05:32:18;;;;;;;13.65;7.63;;;;;;;10.08;47.70;97599.28;5012727;28;20029;-76
2021/03/04 05:34:44;;;;;;;15.45;8.07;;;;;;;10.05;47.85;97594.53;5026267;28;20106;-76
2021/03/04 05:37:10;;;;;;;14.82;7.20;;;;;;;10.16;47.99;97583.31;5028886;28;20041;-76
2021/03/04 05:39:35;;;;;;;16.17;7.95;;;;;;;10.15;47.95;97584.31;5012512;28;20540;-76
2021/03/04 05:42:00;;;;;;;13.45;7.18;;;;;;;10.21;48.24;97585.22;5023802;28;20545;-76
2021/03/04 05:44:26;;;;;;;17.20;8.57;;;;;;;10.10;48.19;97586.81;5012273;28;20095;-76
2021/03/04 05:46:52;;;;;;;14.52;8.07;;;;;;;10.24;48.10;97579.53;5012248;28;20029;-76
2021/03/04 05:49:18;;;;;;;13.30;7.75;;;;;;;10.35;47.69;97576.16;5012484;28;20051;-76
2021/03/04 05:51:45;;;;;;;14.20;6.97;;;;;;;10.37;47.09;97586.31;4996353;28;20067;-76
2021/03/04 05:54:15;;;;;;;13.65;7.55;;;;;;;10.26;46.95;97582.69;5028349;28;20033;-76
2021/03/04 05:56:41;;;;;;;13.02;7.20;;;;;;;10.48;46.93;97572.47;4996186;28;20028;-76
2021/03/04 05:59:08;;;;;;;15.32;7.60;;;;;;;10.48;47.18;97577.66;5012045;28;20025;-76
2021/03/04 06:01:34;;;;;;;14.75;6.85;;;;;;;10.53;46.64;97566.56;5011843;28;20040;-76
2021/03/04 06:03:59;;;;;;;16.73;8.02;;;;;;;10.48;47.11;97559.44;5027196;28;20095;-76
2021/03/04 06:06:25;;;;;;;12.23;7.60;;;;;;;10.42;47.19;97555.97;5008374;28;20534;-76
2021/03/04 06:08:50;;;;;;;13.80;7.28;;;;;;;10.45;47.13;97559.91;5011479;28;20047;-76
2021/03/04 06:11:16;;;;;;;13.68;7.60;;;;;;;10.33;47.07;97551.34;5027403;28;20029;-76
2021/03/04 06:13:41;;;;;;;17.05;8.35;;;;;;;10.35;47.79;97557.13;5027500;28;20044;-76
2021/03/04 06:16:07;;;;;;;14.73;7.68;;;;;;;10.37;47.22;97539.47;4993693;28;20045;-76
2021/03/04 06:18:43;;;;;;;16.98;7.78;;;;;;;10.12;47.67;97546.53;5011091;28;20032;-76
2021/03/04 06:21:23;;;;;;;20.92;7.32;;;;;;;10.09;47.51;97554.81;5011067;28;20025;-76
2021/03/04 06:23:50;;;;;;;15.63;8.20;;;;;;;10.39;47.52;97540.81;5042980;28;20044;-76
2021/03/04 06:26:37;;;;;;;14.50;7.50;;;;;;;10.18;47.96;97555.25;5027068;28;20389;-76
2021/03/04 06:29:13;;;;;;;16.15;8.77;;;;;;;10.12;47.68;97556.16;5046215;28;20036;-76
2021/03/04 06:31:39;;;;;;;13.65;7.43;;;;;;;10.48;47.29;97549.03;4995355;28;20058;-76
2021/03/04 06:34:18;;;;;;;14.23;7.88;;;;;;;10.13;47.67;97555.94;4992140;28;20073;-76
2021/03/04 06:37:09;;;;;;;10.52;6.32;;;;;;;10.06;48.17;97549.28;5031276;28;20071;-76
2021/03/04 06:39:45;;;;;;;13.32;7.97;;;;;;;10.12;47.67;97540.53;4986149;28;20041;-76
2021/03/04 06:42:13;;;;;;;13.07;7.25;;;;;;;10.37;47.36;97537.66;5027961;28;20036;-76
2021/03/04 06:44:43;;;;;;;14.50;7.18;;;;;;;10.21;47.10;97533.97;5023948;28;20033;-76
2021/03/04 06:47:09;;;;;;;14.20;7.68;;;;;;;10.37;47.42;97548.06;4994171;28;20024;-76
2021/03/04 06:49:42;;;;;;;12.70;7.55;;;;;;;10.40;46.57;97557.22;5011399;28;20135;-76
2021/03/04 06:52:09;;;;;;;13.82;7.38;;;;;;;10.59;47.32;97548.19;5027873;28;20032;-76
2021/03/04 06:54:34;;;;;;;15.30;7.40;;;;;;;10.68;47.64;97538.97;5026832;28;20070;-76
2021/03/04 06:57:13;;;;;;;14.95;7.60;;;;;;;10.39;47.35;97547.84;4994994;28;20037;-76
2021/03/04 06:59:43;;;;;;;18.00;8.05;;;;;;;10.42;47.49;97536.97;5011029;28;20033;-76
2021/03/04 07:02:09;;;;;;;15.32;7.78;;;;;;;10.75;47.60;97543.22;5011305;28;20132;-76
2021/03/04 07:04:35;;;;;;;13.68;8.02;;;;;;;10.57;47.89;97545.00;4991684;28;20054;-76
2021/03/04 07:07:01;;;;;;;14.48;8.02;;;;;;;10.79;47.55;97544.34;5008445;28;20041;-76
2021/03/04 07:09:32;;;;;;;16.70;8.05;;;;;;;10.51;47.55;97529.56;5010978;28;20530;-76
2021/03/04 07:11:58;;;;;;;14.27;7.40;;;;;;;10.97;46.77;97540.72;5010610;28;20078;-76
2021/03/04 07:14:23;;;;;;;14.82;7.82;;;;;;;11.21;46.56;97536.91;5010265;28;20044;-76
2021/03/04 07:16:49;;;;;;;14.10;7.80;;;;;;;11.20;46.51;97542.34;5025315;28;20140;-76
2021/03/04 07:19:16;;;;;;;14.80;7.53;;;;;;;11.24;45.80;97525.19;5026687;28;20082;-76
2021/03/04 07:21:49;;;;;;;17.30;9.13;;;;;;;11.22;46.26;97538.50;5010482;28;20059;-76
2021/03/04 07:24:14;;;;;;;16.75;7.78;;;;;;;11.38;46.60;97534.25;4993829;28;20068;-76
2021/03/04 07:26:40;;;;;;;14.95;9.00;;;;;;;11.51;46.00;97540.16;5026879;28;20453;-76
2021/03/04 07:29:10;;;;;;;15.18;8.98;;;;;;;11.37;45.34;97543.09;5026859;28;20095;-76
2021/03/04 07:31:42;;;;;;;15.43;7.68;;;;;;;11.48;44.86;97535.41;5027062;28;20039;-76
2021/03/04 07:34:11;;;;;;;15.55;7.72;;;;;;;11.49;45.93;97537.00;4988797;28;20086;-76
2021/03/04 07:36:37;;;;;;;18.40;8.55;;;;;;;11.67;46.17;97534.13;5025242;28;20603;-76
2021/03/04 07:39:04;;;;;;;14.93;7.80;;;;;;;11.65;45.50;97525.72;5005179;28;20258;-76
2021/03/04 07:41:38;;;;;;;13.43;8.07;;;;;;;11.67;45.05;97528.91;5003499;28;20039;-76
2021/03/04 07:44:04;;;;;;;17.03;7.77;;;;;;;11.96;44.89;97532.16;5008454;28;20139;-76
2021/03/04 07:46:35;;;;;;;14.95;8.73;;;;;;;11.83;44.99;97524.66;4992535;28;20029;-76
2021/03/04 07:49:05;;;;;;;12.48;7.60;;;;;;;12.15;44.81;97529.22;4992976;28;20033;-76
2021/03/04 07:51:46;;;;;;;13.13;8.20;;;;;;;12.08;44.25;97531.22;5026620;28;20465;-76
2021/03/04 07:54:25;;;;;;;12.82;7.97;;;;;;;12.45;43.89;97527.94;5009747;28;20510;-76
2021/03/04 07:57:07;;;;;;;14.88;8.25;;;;;;;11.96;44.53;97515.69;5009037;28;20030;-76
2021/03/04 07:59:32;;;;;;;14.80;8.23;;;;;;;12.17;44.97;97519.31;5009863;28;20021;-76
2021/03/04 08:02:00;;;;;;;16.58;8.65;;;;;;;12.48;43.36;97515.16;5013680;28;20035;-76
2021/03/04 08:04:27;;;;;;;15.15;7.28;;;;;;;12.63;43.11;97513.69;5010418;28;20537;-76
2021/03/04 08:06:54;;;;;;;14.23;7.90;;;;;;;12.87;42.70;97519.41;5013431;28;20037;-76
2021/03/04 08:09:40;;;;;;;13.07;7.50;;;;;;;12.65;43.59;97516.88;5010992;28;20037;-76
2021/03/04 08:12:08;;;;;;;;;;;;;;;12.45;43.69;97517.47;5029751;28;20063;-76
2021/03/04 08:14:34;;;;;;;12.93;7.07;;;;;;;13.30;42.95;97515.75;5046492;28;19908;-76
2021/03/04 08:17:00;;;;;;;13.75;7.72;;;;;;;13.57;42.34;97512.25;5029973;28;20376;-76
2021/03/04 08:19:26;;;;;;;15.38;7.47;;;;;;;13.76;41.71;97517.03;5017482;28;20052;-76
2021/03/04 08:22:08;;;;;;;16.10;7.55;;;;;;;13.42;42.02;97510.34;5025918;28;20037;-76
2021/03/04 08:24:38;;;;;;;13.70;7.47;;;;;;;13.98;41.41;97504.56;5023766;28;20026;-76
2021/03/04 08:27:05;;;;;;;13.20;7.45;;;;;;;13.84;41.76;97500.84;5011281;28;20041;-77
2021/03/04 08:29:32;;;;;;;17.50;8.57;;;;;;;14.15;40.99;97500.91;4997214;28;20038;-76
2021/03/04 08:32:00;;;;;;;14.45;8.23;;;;;;;14.07;41.26;97493.56;5013416;28;20392;-76
2021/03/04 08:34:36;;;;;;;13.30;7.43;;;;;;;13.95;41.94;97491.16;5012159;28;20032;-76
2021/03/04 08:37:02;;;;;;;14.63;8.35;;;;;;;14.50;40.41;97488.94;5012206;28;20029;-76
2021/03/04 08:39:34;;;;;;;12.25;7.55;;;;;;;14.45;40.21;97492.31;5012541;28;20088;-76
2021/03/04 08:42:08;;;;;;;14.57;7.32;;;;;;;14.40;39.56;97490.47;4997357;28;20084;-76
2021/03/04 08:44:34;;;;;;;10.25;7.05;;;;;;;14.19;41.57;97481.03;5028066;28;20476;-76
2021/03/04 08:46:59;;;;;;;12.48;7.63;;;;;;;14.19;41.37;97483.66;5012788;28;20025;-76
2021/03/04 08:49:25;;;;;;;13.50;7.65;;;;;;;14.35;41.19;97468.75;5029572;28;20033;-76
2021/03/04 08:51:51;;;;;;;13.32;7.97;;;;;;;14.60;41.89;97475.84;5029891;28;20055;-76
2021/03/04 08:54:22;;;;;;;15.68;8.18;;;;;;;14.90;39.96;97474.25;5029368;28;20075;-76
2021/03/04 08:56:59;;;;;;;13.48;7.75;;;;;;;14.54;39.75;97477.63;5050946;28;20029;-76
2021/03/04 08:59:26;;;;;;;16.08;7.95;;;;;;;15.06;39.47;97473.19;5016869;28;20478;-76
2021/03/04 09:01:55;;;;;;;14.77;7.93;;;;;;;15.19;39.75;97471.81;4998898;28;20034;-76
2021/03/04 09:04:22;;;;;;;16.33;8.20;;;;;;;15.25;40.13;97469.97;5016821;28;20057;-76
2021/03/04 09:06:48;;;;;;;12.73;7.07;;;;;;;15.46;38.69;97465.47;5031274;28;20495;-76
2021/03/04 09:09:29;;;;;;;12.68;7.32;;;;;;;15.43;38.29;97461.53;5029480;28;20032;-76
2021/03/04 09:11:56;;;;;;;13.90;8.23;;;;;;;15.80;37.87;97457.72;5014034;28;20464;-76
2021/03/04 09:14:30;;;;;;;15.13;7.55;;;;;;;15.64;38.42;97459.59;5030919;28;20044;-76
2021/03/04 09:16:56;;;;;;;18.45;8.77;;;;;;;15.62;39.32;97463.53;5031541;28;20386;-76
2021/03/04 09:19:28;;;;;;;16.48;8.43;;;;;;;15.76;38.55;97464.53;5015200;28;20040;-76
2021/03/04 09:21:55;;;;;;;15.57;8.13;;;;;;;15.85;38.90;97459.50;5030099;28;20043;-76
2021/03/04 09:24:20;;;;;;;12.38;7.47;;;;;;;16.07;37.84;97459.94;5013498;28;20467;-76
2021/03/04 09:26:46;;;;;;;14.38;8.38;;;;;;;15.86;38.26;97456.63;4998374;28;20084;-76
2021/03/04 09:29:11;;;;;;;13.85;7.93;;;;;;;15.99;37.63;97452.63;5047693;28;20029;-76
2021/03/04 09:31:48;;;;;;;14.27;8.68;;;;;;;15.66;38.55;97454.06;5030508;28;20037;-76
2021/03/04 09:34:13;;;;;;;15.18;8.85;;;;;;;15.71;38.29;97457.47;5011212;28;20024;-76
2021/03/04 09:36:39;;;;;;;14.57;7.95;;;;;;;15.99;38.70;97446.56;5003516;28;20089;-76
2021/03/04 09:39:04;;;;;;;14.15;8.32;;;;;;;16.26;37.99;97444.28;4998108;28;20166;-76
2021/03/04 09:41:32;;;;;;;13.55;8.43;;;;;;;16.30;37.92;97444.53;5030126;28;20044;-76
2021/03/04 09:44:01;;;;;;;15.68;8.27;;;;;;;16.23;37.55;97447.47;4996453;28;20068;-76
2021/03/04 09:46:41;;;;;;;15.35;7.75;;;;;;;16.04;37.84;97443.91;4997253;28;20083;-76
2021/03/04 09:49:12;;;;;;;17.52;8.98;;;;;;;16.00;38.21;97432.38;5012741;28;20029;-76
2021/03/04 09:51:39;;;;;;;16.60;8.45;;;;;;;16.48;37.20;97432.53;5030921;28;20052;-76
2021/03/04 09:54:06;;;;;;;12.70;7.97;;;;;;;16.53;37.69;97432.50;5012920;28;20076;-76
2021/03/04 09:56:32;;;;;;;14.88;8.18;;;;;;;16.66;37.87;97429.25;5029750;28;20059;-76
2021/03/04 09:58:58;;;;;;;15.60;8.30;;;;;;;16.71;39.27;97430.25;5013058;28;20479;-76
2021/03/04 10:01:31;;;;;;;14.48;8.32;;;;;;;16.72;37.45;97421.31;4997689;28;20040;-76
2021/03/04 10:04:05;;;;;;;14.27;7.53;;;;;;;16.88;36.70;97427.22;5025440;28;20049;-76
2021/03/04 10:06:35;;;;;;;12.52;8.25;;;;;;;16.83;37.02;97410.41;4994317;28;20048;-76
2021/03/04 10:09:02;;;;;;;16.15;8.13;;;;;;;16.46;37.98;97411.78;5014172;28;20029;-76
2021/03/04 10:11:28;;;;;;;12.48;6.90;;;;;;;16.90;37.46;97410.09;5013722;28;20081;-76
2021/03/04 10:13:55;;;;;;;15.63;7.97;;;;;;;16.92;38.82;97410.59;5026383;28;20029;-76
2021/03/04 10:16:20;;;;;;;14.43;8.07;;;;;;;17.12;37.67;97417.50;5027643;28;20033;-77
2021/03/04 10:18:50;;;;;;;12.38;7.90;;;;;;;17.16;36.63;97420.34;5013168;28;20471;-76
2021/03/04 10:21:18;;;;;;;13.25;7.80;;;;;;;17.75;35.48;97421.72;5026552;28;20033;-76
2021/03/04 10:23:48;;;;;;;13.50;7.72;;;;;;;17.38;35.19;97420.59;5012469;28;20037;-76
2021/03/04 10:26:14;;;;;;;13.82;7.95;;;;;;;17.35;35.64;97421.16;5025678;28;20515;-75
2021/03/04 10:28:40;;;;;;;15.82;8.48;;;;;;;17.13;36.50;97424.31;5012254;28;20362;-76
2021/03/04 10:31:05;;;;;;;13.40;7.72;;;;;;;17.01;36.80;97421.28;5044024;28;20071;-76
2021/03/04 10:33:30;;;;;;;15.13;8.50;;;;;;;17.04;36.63;97433.91;5003974;28;20037;-76
2021/03/04 10:35:56;;;;;;;14.43;7.88;;;;;;;17.35;36.03;97431.69;5026540;28;20029;-76
2021/03/04 10:38:21;;;;;;;15.10;8.15;;;;;;;17.64;35.26;97430.03;4994538;28;20044;-76
2021/03/04 10:40:47;;;;;;;14.88;8.15;;;;;;;17.32;37.07;97421.72;5013093;28;20037;-76
2021/03/04 10:43:12;;;;;;;18.30;9.35;;;;;;;17.59;36.61;97421.13;5012117;28;20029;-76
2021/03/04 10:45:38;;;;;;;12.38;8.70;;;;;;;17.22;36.36;97420.00;5028512;28;20029;-76
2021/03/04 10:48:04;;;;;;;13.45;7.95;;;;;;;17.78;36.63;97421.13;5047697;28;20047;-76
2021/03/04 10:50:29;;;;;;;13.95;8.02;;;;;;;18.31;35.98;97414.06;5011078;28;20076;-77
2021/03/04 10:52:54;;;;;;;13.25;8.90;;;;;;;18.40;35.15;97416.81;5012042;28;20149;-76
2021/03/04 10:55:20;;;;;;;14.15;8.77;;;;;;;18.66;33.88;97406.63;5012283;28;20658;-76
2021/03/04 10:57:45;;;;;;;13.30;8.85;;;;;;;18.32;34.54;97408.50;5012362;28;20041;-76
2021/03/04 11:00:12;;;;;;;16.65;9.18;;;;;;;17.90;35.73;97409.41;5028879;28;20394;-76
2021/03/04 11:02:37;;;;;;;15.35;8.85;;;;;;;17.47;37.08;97404.97;5010612;28;20033;-76
2021/03/04 11:05:05;;;;;;;13.02;8.43;;;;;;;17.26;37.86;97407.06;5028825;28;20053;-76
2021/03/04 11:07:30;;;;;;;13.57;8.32;;;;;;;17.36;37.38;97412.22;5029180;28;20483;-76
2021/03/04 11:09:56;;;;;;;15.18;9.13;;;;;;;17.22;36.72;97403.41;5047049;28;20037;-76
2021/03/04 11:12:21;;;;;;;14.52;8.60;;;;;;;16.94;37.93;97408.47;5009297;28;20067;-76
2021/03/04 11:14:47;;;;;;;14.75;9.02;;;;;;;17.08;37.43;97402.53;5028506;28;20414;-75
2021/03/04 11:17:13;;;;;;;14.00;8.55;;;;;;;17.13;37.80;97400.63;4999300;28;20389;-76
2021/03/04 11:19:39;;;;;;;17.50;9.60;;;;;;;17.10;37.44;97400.41;4992163;28;20019;-76
2021/03/04 11:22:05;;;;;;;15.95;8.52;;;;;;;17.20;37.33;97397.66;5028691;28;20043;-76
2021/03/04 11:24:30;;;;;;;14.32;9.05;;;;;;;17.13;37.86;97405.13;5027372;28;20025;-76
2021/03/04 11:26:56;;;;;;;17.05;9.18;;;;;;;16.97;37.74;97396.63;4994536;28;20028;-75
2021/03/04 11:29:21;;;;;;;17.35;9.45;;;;;;;16.74;38.65;97404.19;4996437;28;20394;-76